ΕΜΥ, Εθνική Μετεωρολογική Υπηρεσία - Δελτία Καιρού, Προγνώσεις

ΑΕΡΟΝΑΥΤΙΛΙΑ

GREEK AIRPORTS CODES

LGSY 221250Z 06009KT 9999 FEW025 19/14 Q1016 RMK SCT080 BKN180=

EUROPEAN AIRPORTS CODES

LFPO 221230Z 04013KT 9999 FEW046TCU BKN058 09/M01 Q1024TEMPO 4000 -SHRA SCT030TCU=